createdAt,value
2022-12-28T00:02:31.730Z,1.10
2022-12-28T00:05:40.053Z,1.10
2022-12-28T00:08:46.487Z,1.10
2022-12-28T00:11:52.744Z,1.11
2022-12-28T00:14:59.039Z,1.13
2022-12-28T00:18:04.663Z,1.12
2022-12-28T00:21:13.777Z,1.02
2022-12-28T00:24:23.548Z,1.02
2022-12-28T00:27:29.802Z,1.02
2022-12-28T00:30:35.248Z,1.09
2022-12-28T00:33:42.247Z,1.17
2022-12-28T00:37:11.093Z,1.20
2022-12-28T00:40:23.958Z,1.32
2022-12-28T00:43:30.772Z,1.42
2022-12-28T00:46:38.321Z,1.44
2022-12-28T00:49:43.771Z,1.44
2022-12-28T00:52:52.847Z,1.39
2022-12-28T00:55:58.610Z,1.28
2022-12-28T00:59:04.942Z,1.24
2022-12-28T01:02:10.595Z,1.15
2022-12-28T01:05:16.891Z,1.03
2022-12-28T01:08:25.063Z,1.08
2022-12-28T01:11:34.444Z,1.08
2022-12-28T01:14:39.845Z,1.08
2022-12-28T01:17:46.083Z,1.09
2022-12-28T01:20:51.511Z,1.09
2022-12-28T01:24:03.682Z,1.06
2022-12-28T01:27:10.582Z,1.04
2022-12-28T01:30:18.304Z,1.03
2022-12-28T01:33:23.780Z,1.00
2022-12-28T01:36:35.145Z,0.92
2022-12-28T01:39:43.320Z,0.80
2022-12-28T01:42:49.535Z,0.71
2022-12-28T01:45:57.003Z,0.58
2022-12-28T01:49:13.267Z,0.54
2022-12-28T01:52:29.104Z,0.50
2022-12-28T01:55:44.551Z,0.47
2022-12-28T01:58:51.279Z,0.47
2022-12-28T02:01:59.057Z,0.42
2022-12-28T02:05:06.010Z,0.39
2022-12-28T02:08:21.834Z,0.36
2022-12-28T02:11:30.172Z,0.35
2022-12-28T02:14:39.044Z,0.28
2022-12-28T02:17:46.868Z,0.18
2022-12-28T02:21:25.404Z,0.06
2022-12-28T02:25:14.059Z,0.01
2022-12-28T02:29:26.526Z,-0.00
2022-12-28T02:33:01.071Z,0.00
2022-12-28T02:36:18.958Z,0.05
2022-12-28T02:39:35.007Z,0.05
2022-12-28T02:42:43.583Z,0.03
2022-12-28T02:46:09.294Z,0.03
2022-12-28T02:49:42.647Z,0.02
2022-12-28T02:53:39.452Z,0.06
2022-12-28T02:56:56.135Z,0.05
2022-12-28T03:00:12.141Z,0.01
2022-12-28T03:03:37.489Z,0.00
2022-12-28T03:07:15.514Z,0.04
2022-12-28T03:10:32.357Z,0.04
2022-12-28T03:13:50.728Z,0.04
2022-12-28T03:17:20.033Z,-0.05
2022-12-28T03:20:50.871Z,-0.06
2022-12-28T03:24:15.879Z,-0.46
2022-12-28T03:27:42.139Z,-0.17
2022-12-28T03:31:08.978Z,-0.29
2022-12-28T03:34:22.281Z,-0.37
2022-12-28T03:37:44.555Z,-1.00
2022-12-28T03:41:05.441Z,-0.45
2022-12-28T03:44:18.833Z,-0.45
2022-12-28T03:47:32.058Z,-0.49
2022-12-28T03:50:43.333Z,-0.46
2022-12-28T03:53:53.520Z,-0.45
2022-12-28T03:57:00.972Z,-0.43
2022-12-28T04:00:14.383Z,-0.41
2022-12-28T04:03:22.298Z,-0.42
2022-12-28T04:06:28.593Z,-0.37
2022-12-28T04:09:39.084Z,-0.34
2022-12-28T04:12:46.526Z,-0.36
2022-12-28T04:16:07.839Z,-0.32
2022-12-28T04:19:15.696Z,-0.29
2022-12-28T04:22:22.124Z,-0.27
2022-12-28T04:25:31.539Z,-0.31
2022-12-28T04:28:38.717Z,-0.31
2022-12-28T04:32:00.269Z,-0.30
2022-12-28T04:35:06.497Z,-0.32
2022-12-28T04:38:22.322Z,-0.24
2022-12-28T04:41:30.906Z,-0.20
2022-12-28T04:44:37.135Z,-0.18
2022-12-28T04:47:42.591Z,-0.14
2022-12-28T04:50:48.851Z,-0.12
2022-12-28T04:53:55.651Z,-0.12
2022-12-28T04:57:04.666Z,-0.13
2022-12-28T05:00:12.271Z,-0.08
2022-12-28T05:03:18.529Z,-0.09
2022-12-28T05:06:27.508Z,-0.07
2022-12-28T05:09:33.761Z,-0.06
2022-12-28T05:12:41.953Z,-0.05
2022-12-28T05:15:48.244Z,-0.08
2022-12-28T05:18:54.053Z,-0.10
2022-12-28T05:22:00.295Z,-0.09
2022-12-28T05:25:05.897Z,-0.13
2022-12-28T05:28:14.899Z,-0.14
2022-12-28T05:31:24.685Z,-0.16
2022-12-28T05:34:31.141Z,-0.15
2022-12-28T05:37:37.011Z,-0.19
2022-12-28T05:40:43.265Z,-0.21
2022-12-28T05:43:52.074Z,-0.23
2022-12-28T05:46:58.479Z,-0.24
2022-12-28T05:50:03.885Z,-0.30
2022-12-28T05:53:10.133Z,-0.27
2022-12-28T05:56:18.961Z,-0.24
2022-12-28T05:59:28.173Z,-0.28
2022-12-28T06:02:34.244Z,-0.27
2022-12-28T06:05:40.710Z,-0.21
2022-12-28T06:08:49.124Z,-0.27
2022-12-28T06:11:55.563Z,-0.23
2022-12-28T06:15:03.725Z,-0.29
2022-12-28T06:18:10.463Z,-0.30
2022-12-28T06:21:19.435Z,-0.29
2022-12-28T06:24:25.692Z,-0.29
2022-12-28T06:27:31.093Z,-0.29
2022-12-28T06:30:40.324Z,-0.26
2022-12-28T06:33:46.998Z,-0.27
2022-12-28T06:36:54.231Z,-0.27
2022-12-28T06:39:59.604Z,-0.26
2022-12-28T06:43:06.507Z,-0.28
2022-12-28T06:46:16.664Z,-0.26
2022-12-28T06:49:23.169Z,-0.25
2022-12-28T06:52:28.561Z,-0.22
2022-12-28T06:55:37.166Z,-0.20
2022-12-28T06:58:42.899Z,-0.18
2022-12-28T07:01:52.042Z,-0.20
2022-12-28T07:04:57.476Z,-0.24
2022-12-28T07:08:09.096Z,-0.21
2022-12-28T07:11:21.261Z,-0.19
2022-12-28T07:14:27.667Z,-0.17
2022-12-28T07:17:35.870Z,-0.14
2022-12-28T07:20:42.126Z,-0.15
2022-12-28T07:23:47.661Z,-0.12
2022-12-28T07:26:53.963Z,-0.06
2022-12-28T07:29:59.522Z,-0.04
2022-12-28T07:33:08.594Z,-0.00
2022-12-28T07:36:19.834Z,0.01
2022-12-28T07:39:26.053Z,0.04
2022-12-28T07:42:32.631Z,0.07
2022-12-28T07:45:39.818Z,0.11
2022-12-28T07:48:49.783Z,0.16
2022-12-28T07:51:56.204Z,0.17
2022-12-28T07:55:03.883Z,0.23
2022-12-28T07:58:10.182Z,0.29
2022-12-28T08:01:19.968Z,0.36
2022-12-28T08:04:29.441Z,0.42
2022-12-28T08:07:34.863Z,0.44
2022-12-28T08:10:41.481Z,0.53
2022-12-28T08:13:50.244Z,0.62
2022-12-28T08:16:56.766Z,0.71
2022-12-28T08:20:05.499Z,0.78
2022-12-28T08:23:12.243Z,0.82
2022-12-28T08:26:21.411Z,0.82
2022-12-28T08:29:27.659Z,0.84
2022-12-28T08:32:33.116Z,0.86
2022-12-28T08:35:42.412Z,0.95
2022-12-28T08:38:49.505Z,1.03
2022-12-28T08:41:55.957Z,1.07
2022-12-28T08:45:01.325Z,1.18
2022-12-28T08:48:08.684Z,1.25
2022-12-28T08:51:21.005Z,1.34
2022-12-28T08:54:27.426Z,1.39
2022-12-28T08:57:33.052Z,1.51
2022-12-28T09:00:39.834Z,1.58
2022-12-28T09:03:48.895Z,1.66
2022-12-28T09:06:58.010Z,1.70
2022-12-28T09:10:03.456Z,1.76
2022-12-28T09:13:11.027Z,1.86
2022-12-28T09:16:23.874Z,1.99
2022-12-28T09:19:32.855Z,2.08
2022-12-28T09:22:40.992Z,2.15
2022-12-28T09:25:47.620Z,2.20
2022-12-28T09:28:57.039Z,2.20
2022-12-28T09:32:03.315Z,2.23
2022-12-28T09:35:10.354Z,2.30
2022-12-28T09:38:19.490Z,2.34
2022-12-28T09:41:33.505Z,2.43
2022-12-28T09:44:57.633Z,2.47
2022-12-28T09:48:14.531Z,2.50
2022-12-28T09:51:28.099Z,2.54
2022-12-28T09:54:36.369Z,2.49
2022-12-28T09:57:49.525Z,2.51
2022-12-28T10:01:00.735Z,2.58
2022-12-28T10:04:08.520Z,2.58
2022-12-28T10:07:15.264Z,2.62
2022-12-28T10:10:27.593Z,2.68
2022-12-28T10:13:54.776Z,2.73
2022-12-28T10:17:01.808Z,2.78
2022-12-28T10:20:08.165Z,2.82
2022-12-28T10:23:24.278Z,2.84
2022-12-28T10:26:33.844Z,2.81
2022-12-28T10:29:40.804Z,2.78
2022-12-28T10:33:01.795Z,2.83
2022-12-28T10:36:15.939Z,2.89
2022-12-28T10:39:28.781Z,2.94
2022-12-28T10:42:44.305Z,2.98
2022-12-28T10:45:55.133Z,2.97
2022-12-28T10:49:07.737Z,2.98
2022-12-28T10:52:24.069Z,2.93
2022-12-28T10:55:33.881Z,2.93
2022-12-28T10:58:43.830Z,2.93
2022-12-28T11:01:50.406Z,3.06
2022-12-28T11:05:01.728Z,3.03
2022-12-28T11:08:09.973Z,3.07
2022-12-28T11:11:26.500Z,3.14
2022-12-28T11:14:40.643Z,3.16
2022-12-28T11:17:48.160Z,2.82
2022-12-28T11:20:57.572Z,3.28
2022-12-28T11:24:03.192Z,3.29
2022-12-28T11:27:15.963Z,3.33
2022-12-28T11:30:25.183Z,3.41
2022-12-28T11:33:45.398Z,3.45
2022-12-28T11:36:52.799Z,3.48
2022-12-28T11:39:59.330Z,3.55
2022-12-28T11:43:04.813Z,3.67
2022-12-28T11:46:45.168Z,3.77
2022-12-28T11:49:51.745Z,3.87
2022-12-28T11:52:58.132Z,3.94
2022-12-28T11:56:09.700Z,4.02
2022-12-28T11:59:29.621Z,4.55
2022-12-28T12:02:53.420Z,5.34
2022-12-28T12:05:59.947Z,5.59
2022-12-28T12:09:05.403Z,5.77
2022-12-28T12:12:49.598Z,5.95
2022-12-28T12:16:02.166Z,5.85
2022-12-28T12:19:25.100Z,6.14
2022-12-28T12:22:44.032Z,6.15
2022-12-28T12:25:57.202Z,5.99
2022-12-28T12:29:18.273Z,6.15
2022-12-28T12:32:37.824Z,6.25
2022-12-28T12:36:04.992Z,6.07
2022-12-28T12:39:39.002Z,6.20
2022-12-28T12:43:10.959Z,6.49
2022-12-28T12:46:52.737Z,6.40
2022-12-28T12:50:32.302Z,6.13
2022-12-28T12:54:10.140Z,5.89
2022-12-28T12:57:29.606Z,5.68
2022-12-28T13:00:55.400Z,5.49
2022-12-28T13:04:12.312Z,5.17
2022-12-28T13:07:27.237Z,4.93
2022-12-28T13:10:40.980Z,4.79
2022-12-28T13:13:52.366Z,4.76
2022-12-28T13:17:02.265Z,4.69
2022-12-28T13:20:20.584Z,4.62
2022-12-28T13:23:27.633Z,4.54
2022-12-28T13:26:44.906Z,4.49
2022-12-28T13:29:56.995Z,4.41
2022-12-28T13:33:05.207Z,4.50
2022-12-28T13:36:22.292Z,4.57
2022-12-28T13:39:34.118Z,4.58
2022-12-28T13:43:20.229Z,4.93
2022-12-28T13:46:28.641Z,4.87
2022-12-28T13:49:46.186Z,4.69
2022-12-28T13:53:02.668Z,4.40
2022-12-28T13:56:14.090Z,4.18
2022-12-28T13:59:25.443Z,4.05
2022-12-28T14:02:31.877Z,4.05
2022-12-28T14:05:38.859Z,3.98
2022-12-28T14:08:46.532Z,3.86
2022-12-28T14:11:54.900Z,3.86
2022-12-28T14:15:04.762Z,3.85
2022-12-28T14:18:16.738Z,3.83
2022-12-28T14:21:36.509Z,3.73
2022-12-28T14:25:05.668Z,3.76
2022-12-28T14:28:22.028Z,3.75
2022-12-28T14:31:48.920Z,3.76
2022-12-28T14:35:23.334Z,3.71
2022-12-28T14:38:57.268Z,3.66
2022-12-28T14:42:32.197Z,3.52
2022-12-28T14:49:42.903Z,3.38
2022-12-28T14:52:53.017Z,3.25
2022-12-28T14:56:11.427Z,3.24
2022-12-28T14:59:26.697Z,3.20
2022-12-28T15:00:25.306Z,3.45
2022-12-28T15:02:43.660Z,3.19
2022-12-28T15:05:55.519Z,3.11
2022-12-28T15:09:06.552Z,3.07
2022-12-28T15:12:18.012Z,3.03
2022-12-28T15:15:23.980Z,2.99
2022-12-28T15:18:33.447Z,2.96
2022-12-28T15:21:42.178Z,2.94
2022-12-28T15:24:49.530Z,2.91
2022-12-28T15:27:56.521Z,2.91
2022-12-28T15:31:02.786Z,2.88
2022-12-28T15:34:08.262Z,2.86
2022-12-28T15:37:17.400Z,2.81
2022-12-28T15:40:22.879Z,2.75
2022-12-28T15:43:29.194Z,2.73
2022-12-28T15:46:34.840Z,2.71
2022-12-28T15:49:41.430Z,2.67
2022-12-28T15:52:49.590Z,2.60
2022-12-28T15:56:02.558Z,2.52
2022-12-28T15:59:14.863Z,2.46
2022-12-28T16:02:21.643Z,2.45
2022-12-28T16:05:27.160Z,2.41
2022-12-28T16:08:36.171Z,2.40
2022-12-28T16:11:42.069Z,2.34
2022-12-28T16:14:49.886Z,2.33
2022-12-28T16:17:57.684Z,2.29
2022-12-28T16:21:04.869Z,2.22
2022-12-28T16:24:14.549Z,2.22
2022-12-28T16:27:21.139Z,2.17
2022-12-28T16:30:26.675Z,2.17
2022-12-28T16:33:33.040Z,2.21
2022-12-28T16:36:38.597Z,2.22
2022-12-28T16:39:47.679Z,2.25
2022-12-28T16:42:53.066Z,2.26
2022-12-28T16:45:59.406Z,2.25
2022-12-28T16:49:05.779Z,2.25
2022-12-28T16:52:12.547Z,2.30
2022-12-28T16:55:21.117Z,2.29
2022-12-28T16:58:27.419Z,2.28
2022-12-28T17:01:33.101Z,2.31
2022-12-28T17:04:39.635Z,2.29
2022-12-28T17:07:45.308Z,2.32
2022-12-28T17:10:54.282Z,2.29
2022-12-28T17:14:04.742Z,2.35
2022-12-28T17:17:12.526Z,2.33
2022-12-28T17:20:18.207Z,2.28
2022-12-28T17:23:24.515Z,2.31
2022-12-28T17:26:32.791Z,2.27
2022-12-28T17:29:40.154Z,2.27
2022-12-28T17:32:45.598Z,2.21
2022-12-28T17:35:52.123Z,2.19
2022-12-28T17:38:57.712Z,2.16
2022-12-28T17:42:07.393Z,2.15
2022-12-28T17:45:14.007Z,2.17
2022-12-28T17:48:20.477Z,2.18
2022-12-28T17:51:26.998Z,2.18
2022-12-28T17:54:33.275Z,2.20
2022-12-28T17:57:41.496Z,2.25
2022-12-28T18:00:47.822Z,2.25
2022-12-28T18:03:54.352Z,2.26
2022-12-28T18:07:00.600Z,2.28
2022-12-28T18:10:06.921Z,2.29
2022-12-28T18:13:17.103Z,2.32
2022-12-28T18:16:23.056Z,2.27
2022-12-28T18:19:29.838Z,2.20
2022-12-28T18:22:35.535Z,2.19
2022-12-28T18:25:42.690Z,2.14
2022-12-28T18:28:51.155Z,2.05
2022-12-28T18:31:57.405Z,1.97
2022-12-28T18:35:03.134Z,1.92
2022-12-28T18:38:09.572Z,1.93
2022-12-28T18:41:18.839Z,1.91
2022-12-28T18:44:28.404Z,1.87
2022-12-28T18:47:35.537Z,1.82
2022-12-28T18:50:42.051Z,1.72
2022-12-28T18:53:50.436Z,1.76
2022-12-28T18:56:56.792Z,1.69
2022-12-28T19:00:05.380Z,1.69
2022-12-28T19:03:12.468Z,1.68
2022-12-28T19:06:17.998Z,1.66
2022-12-28T19:09:26.041Z,1.69
2022-12-28T19:12:31.505Z,1.67
2022-12-28T19:15:40.532Z,1.73
2022-12-28T19:18:46.247Z,1.69
2022-12-28T19:21:58.427Z,1.65
2022-12-28T19:25:04.580Z,1.63
2022-12-28T19:28:11.538Z,1.61
2022-12-28T19:31:19.906Z,1.61
2022-12-28T19:34:26.260Z,1.65
2022-12-28T19:37:31.631Z,1.69
2022-12-28T19:40:37.898Z,1.70
2022-12-28T19:43:43.792Z,1.71
2022-12-28T19:46:54.238Z,1.72
2022-12-28T19:49:59.762Z,1.74
2022-12-28T19:53:06.157Z,1.74
2022-12-28T19:56:16.317Z,1.79
2022-12-28T19:59:22.655Z,1.78
2022-12-28T20:02:31.085Z,1.75
2022-12-28T20:05:39.043Z,1.76
2022-12-28T20:08:49.535Z,1.77
2022-12-28T20:11:55.933Z,1.73
2022-12-28T20:15:01.788Z,1.69
2022-12-28T20:18:11.452Z,1.72
2022-12-28T20:21:19.667Z,1.72
2022-12-28T20:24:27.128Z,1.78
2022-12-28T20:27:33.379Z,1.79
2022-12-28T20:30:39.674Z,1.75
2022-12-28T20:33:48.873Z,1.73
2022-12-28T20:36:55.570Z,1.71
2022-12-28T20:40:01.123Z,1.72
2022-12-28T20:43:23.305Z,1.74
2022-12-28T20:46:28.862Z,1.76
2022-12-28T20:49:38.829Z,1.77
2022-12-28T20:52:44.868Z,1.80
2022-12-28T20:55:51.765Z,1.81
2022-12-28T20:58:57.575Z,1.78
2022-12-28T21:02:04.496Z,1.77
2022-12-28T21:05:13.795Z,1.78
2022-12-28T21:08:20.231Z,1.79
2022-12-28T21:11:28.965Z,1.78
2022-12-28T21:14:35.417Z,1.81
2022-12-28T21:17:40.879Z,1.83
2022-12-28T21:20:53.874Z,1.88
2022-12-28T21:23:59.554Z,1.87
2022-12-28T21:27:05.924Z,1.89
2022-12-28T21:30:13.199Z,1.87
2022-12-28T21:33:19.578Z,1.90
2022-12-28T21:36:27.883Z,1.90
2022-12-28T21:39:34.215Z,1.90
2022-12-28T21:42:40.145Z,1.86
2022-12-28T21:45:46.581Z,1.82
2022-12-28T21:48:52.084Z,1.80
2022-12-28T21:52:03.215Z,1.78
2022-12-28T21:55:21.800Z,1.79
2022-12-28T21:58:28.096Z,1.80
2022-12-28T22:01:50.079Z,1.82
2022-12-28T22:05:12.475Z,1.81
2022-12-28T22:08:36.728Z,1.81
2022-12-28T22:11:58.705Z,1.84
2022-12-28T22:15:25.412Z,1.88
2022-12-28T22:21:57.102Z,1.87
2022-12-28T22:25:06.263Z,1.83
2022-12-28T22:28:12.059Z,1.81
2022-12-28T22:31:18.578Z,1.81
2022-12-28T22:34:24.099Z,1.84
2022-12-28T22:37:30.586Z,1.86
2022-12-28T22:40:38.838Z,1.90
2022-12-28T22:43:45.341Z,1.92
2022-12-28T22:46:50.756Z,1.95
2022-12-28T22:49:57.312Z,1.98
2022-12-28T22:53:02.766Z,1.98
2022-12-28T22:56:21.040Z,1.98
2022-12-28T22:59:26.657Z,1.97
2022-12-28T23:02:33.296Z,1.95
2022-12-28T23:05:38.807Z,1.96
2022-12-28T23:08:46.140Z,1.99
2022-12-28T23:11:54.343Z,2.03
2022-12-28T23:15:19.967Z,2.07
2022-12-28T23:18:41.758Z,2.10
2022-12-28T23:22:03.196Z,2.12
2022-12-28T23:25:26.461Z,2.16
2022-12-28T23:28:38.808Z,2.18
2022-12-28T23:31:44.185Z,2.17
2022-12-28T23:34:52.592Z,2.15
2022-12-28T23:37:58.179Z,2.12
2022-12-28T23:41:25.293Z,1.75
2022-12-28T23:44:33.436Z,2.13
2022-12-28T23:47:41.075Z,2.13
2022-12-28T23:50:46.699Z,2.17
2022-12-28T23:53:53.008Z,2.17
2022-12-28T23:56:58.499Z,2.25
